sensor_id;sensor_type;location;lat;lon;timestamp;P1;durP1;ratioP1;P2;durP2;ratioP2
36355;SDS011;22384;54.302;18.596;2023-05-19T00:01:23;5.28;;;2.03;;
36355;SDS011;22384;54.302;18.596;2023-05-19T00:03:50;4.70;;;1.70;;
36355;SDS011;22384;54.302;18.596;2023-05-19T00:06:18;8.50;;;2.03;;
36355;SDS011;22384;54.302;18.596;2023-05-19T00:08:46;2.67;;;1.65;;
36355;SDS011;22384;54.302;18.596;2023-05-19T00:11:14;1.85;;;1.50;;
36355;SDS011;22384;54.302;18.596;2023-05-19T00:13:40;6.63;;;1.92;;
36355;SDS011;22384;54.302;18.596;2023-05-19T00:16:09;5.85;;;1.60;;
36355;SDS011;22384;54.302;18.596;2023-05-19T00:18:35;6.93;;;1.80;;
36355;SDS011;22384;54.302;18.596;2023-05-19T00:21:01;4.20;;;1.65;;
36355;SDS011;22384;54.302;18.596;2023-05-19T00:23:27;7.07;;;1.83;;
36355;SDS011;22384;54.302;18.596;2023-05-19T00:25:53;6.03;;;1.60;;
36355;SDS011;22384;54.302;18.596;2023-05-19T00:28:19;5.05;;;1.90;;
36355;SDS011;22384;54.302;18.596;2023-05-19T00:30:45;13.00;;;2.17;;
36355;SDS011;22384;54.302;18.596;2023-05-19T00:33:11;4.55;;;1.60;;
36355;SDS011;22384;54.302;18.596;2023-05-19T00:35:37;5.57;;;1.90;;
36355;SDS011;22384;54.302;18.596;2023-05-19T00:38:04;5.70;;;2.00;;
36355;SDS011;22384;54.302;18.596;2023-05-19T00:40:30;3.20;;;1.80;;
36355;SDS011;22384;54.302;18.596;2023-05-19T00:42:57;6.43;;;2.08;;
36355;SDS011;22384;54.302;18.596;2023-05-19T00:45:23;5.45;;;2.10;;
36355;SDS011;22384;54.302;18.596;2023-05-19T00:47:49;9.88;;;2.30;;
36355;SDS011;22384;54.302;18.596;2023-05-19T00:50:15;7.15;;;2.00;;
36355;SDS011;22384;54.302;18.596;2023-05-19T00:52:41;5.65;;;2.08;;
36355;SDS011;22384;54.302;18.596;2023-05-19T00:55:07;2.92;;;1.80;;
36355;SDS011;22384;54.302;18.596;2023-05-19T00:57:34;6.90;;;2.05;;
36355;SDS011;22384;54.302;18.596;2023-05-19T01:00:00;7.10;;;2.20;;
36355;SDS011;22384;54.302;18.596;2023-05-19T01:02:26;7.05;;;1.98;;
36355;SDS011;22384;54.302;18.596;2023-05-19T01:04:53;4.32;;;1.88;;
36355;SDS011;22384;54.302;18.596;2023-05-19T01:07:21;3.38;;;1.95;;
36355;SDS011;22384;54.302;18.596;2023-05-19T01:09:47;7.32;;;2.00;;
36355;SDS011;22384;54.302;18.596;2023-05-19T01:12:14;4.40;;;2.17;;
36355;SDS011;22384;54.302;18.596;2023-05-19T01:14:40;8.50;;;2.22;;
36355;SDS011;22384;54.302;18.596;2023-05-19T01:17:41;3.92;;;2.55;;
36355;SDS011;22384;54.302;18.596;2023-05-19T01:20:05;6.38;;;1.85;;
36355;SDS011;22384;54.302;18.596;2023-05-19T01:25:11;2.45;;;1.50;;
36355;SDS011;22384;54.302;18.596;2023-05-19T01:27:45;3.72;;;1.67;;
36355;SDS011;22384;54.302;18.596;2023-05-19T01:30:16;3.88;;;1.80;;
36355;SDS011;22384;54.302;18.596;2023-05-19T01:32:42;2.88;;;1.92;;
36355;SDS011;22384;54.302;18.596;2023-05-19T01:35:10;10.38;;;2.47;;
36355;SDS011;22384;54.302;18.596;2023-05-19T01:37:37;3.42;;;1.75;;
36355;SDS011;22384;54.302;18.596;2023-05-19T01:40:05;4.28;;;2.00;;
36355;SDS011;22384;54.302;18.596;2023-05-19T01:42:31;6.63;;;1.90;;
36355;SDS011;22384;54.302;18.596;2023-05-19T01:45:01;3.47;;;1.77;;
36355;SDS011;22384;54.302;18.596;2023-05-19T01:47:27;8.40;;;2.35;;
36355;SDS011;22384;54.302;18.596;2023-05-19T01:49:53;3.45;;;1.95;;
36355;SDS011;22384;54.302;18.596;2023-05-19T01:52:19;4.22;;;1.63;;
36355;SDS011;22384;54.302;18.596;2023-05-19T01:54:45;7.88;;;1.65;;
36355;SDS011;22384;54.302;18.596;2023-05-19T01:57:17;3.55;;;1.63;;
36355;SDS011;22384;54.302;18.596;2023-05-19T02:08:03;4.05;;;1.30;;
36355;SDS011;22384;54.302;18.596;2023-05-19T02:10:30;5.90;;;1.70;;
36355;SDS011;22384;54.302;18.596;2023-05-19T02:12:58;5.10;;;1.58;;
36355;SDS011;22384;54.302;18.596;2023-05-19T02:15:27;8.07;;;1.70;;
36355;SDS011;22384;54.302;18.596;2023-05-19T02:17:54;7.93;;;1.55;;
36355;SDS011;22384;54.302;18.596;2023-05-19T02:20:24;5.10;;;1.60;;
36355;SDS011;22384;54.302;18.596;2023-05-19T02:22:50;8.02;;;1.58;;
36355;SDS011;22384;54.302;18.596;2023-05-19T02:25:16;2.17;;;1.20;;
36355;SDS011;22384;54.302;18.596;2023-05-19T02:27:42;4.22;;;1.38;;
36355;SDS011;22384;54.302;18.596;2023-05-19T02:30:08;4.28;;;1.42;;
36355;SDS011;22384;54.302;18.596;2023-05-19T02:32:34;5.35;;;1.38;;
36355;SDS011;22384;54.302;18.596;2023-05-19T02:35:00;3.20;;;1.10;;
36355;SDS011;22384;54.302;18.596;2023-05-19T02:37:26;3.08;;;1.63;;
36355;SDS011;22384;54.302;18.596;2023-05-19T02:39:53;4.63;;;1.20;;
36355;SDS011;22384;54.302;18.596;2023-05-19T02:42:19;3.42;;;1.60;;
36355;SDS011;22384;54.302;18.596;2023-05-19T02:44:47;4.43;;;1.50;;
36355;SDS011;22384;54.302;18.596;2023-05-19T02:47:13;7.18;;;1.70;;
36355;SDS011;22384;54.302;18.596;2023-05-19T02:49:39;1.55;;;1.30;;
36355;SDS011;22384;54.302;18.596;2023-05-19T02:52:06;6.40;;;1.33;;
36355;SDS011;22384;54.302;18.596;2023-05-19T02:54:33;6.00;;;1.20;;
36355;SDS011;22384;54.302;18.596;2023-05-19T02:56:59;6.95;;;1.50;;
36355;SDS011;22384;54.302;18.596;2023-05-19T02:59:25;5.70;;;1.30;;
36355;SDS011;22384;54.302;18.596;2023-05-19T03:01:53;4.97;;;1.80;;
36355;SDS011;22384;54.302;18.596;2023-05-19T03:04:19;2.10;;;1.23;;
36355;SDS011;22384;54.302;18.596;2023-05-19T03:06:45;7.68;;;1.38;;
36355;SDS011;22384;54.302;18.596;2023-05-19T03:09:12;2.83;;;1.17;;
36355;SDS011;22384;54.302;18.596;2023-05-19T03:11:38;2.22;;;1.20;;
36355;SDS011;22384;54.302;18.596;2023-05-19T03:14:04;2.13;;;1.13;;
36355;SDS011;22384;54.302;18.596;2023-05-19T03:16:30;4.53;;;1.30;;
36355;SDS011;22384;54.302;18.596;2023-05-19T03:18:56;2.25;;;1.30;;
36355;SDS011;22384;54.302;18.596;2023-05-19T03:21:23;2.72;;;1.27;;
36355;SDS011;22384;54.302;18.596;2023-05-19T03:23:49;3.90;;;1.30;;
36355;SDS011;22384;54.302;18.596;2023-05-19T03:26:15;5.35;;;1.20;;
36355;SDS011;22384;54.302;18.596;2023-05-19T03:28:41;4.43;;;1.50;;
36355;SDS011;22384;54.302;18.596;2023-05-19T03:31:07;4.53;;;1.33;;
36355;SDS011;22384;54.302;18.596;2023-05-19T03:33:33;6.65;;;1.70;;
36355;SDS011;22384;54.302;18.596;2023-05-19T03:35:59;5.90;;;1.50;;
36355;SDS011;22384;54.302;18.596;2023-05-19T03:38:25;4.82;;;1.40;;
36355;SDS011;22384;54.302;18.596;2023-05-19T03:40:51;3.17;;;1.50;;
36355;SDS011;22384;54.302;18.596;2023-05-19T03:43:18;3.35;;;1.20;;
36355;SDS011;22384;54.302;18.596;2023-05-19T03:45:43;4.28;;;1.50;;
36355;SDS011;22384;54.302;18.596;2023-05-19T03:48:10;3.40;;;1.30;;
36355;SDS011;22384;54.302;18.596;2023-05-19T03:50:36;4.20;;;1.20;;
36355;SDS011;22384;54.302;18.596;2023-05-19T03:53:02;4.78;;;1.27;;
36355;SDS011;22384;54.302;18.596;2023-05-19T03:55:28;3.83;;;1.50;;
36355;SDS011;22384;54.302;18.596;2023-05-19T03:57:54;3.17;;;1.30;;
36355;SDS011;22384;54.302;18.596;2023-05-19T04:00:21;3.25;;;1.40;;
36355;SDS011;22384;54.302;18.596;2023-05-19T04:02:47;2.90;;;1.17;;
36355;SDS011;22384;54.302;18.596;2023-05-19T04:05:13;1.83;;;1.40;;
36355;SDS011;22384;54.302;18.596;2023-05-19T04:07:39;4.35;;;1.25;;
36355;SDS011;22384;54.302;18.596;2023-05-19T04:10:06;4.15;;;1.42;;
36355;SDS011;22384;54.302;18.596;2023-05-19T04:12:33;3.42;;;1.17;;
36355;SDS011;22384;54.302;18.596;2023-05-19T04:14:59;5.18;;;1.13;;
36355;SDS011;22384;54.302;18.596;2023-05-19T04:17:25;5.47;;;1.00;;
36355;SDS011;22384;54.302;18.596;2023-05-19T04:19:52;3.95;;;1.20;;
36355;SDS011;22384;54.302;18.596;2023-05-19T04:22:18;4.65;;;0.90;;
36355;SDS011;22384;54.302;18.596;2023-05-19T04:24:44;3.28;;;1.00;;
36355;SDS011;22384;54.302;18.596;2023-05-19T04:27:10;2.53;;;1.10;;
36355;SDS011;22384;54.302;18.596;2023-05-19T04:29:39;4.25;;;1.15;;
36355;SDS011;22384;54.302;18.596;2023-05-19T04:32:06;6.97;;;1.02;;
36355;SDS011;22384;54.302;18.596;2023-05-19T04:34:35;2.92;;;1.00;;
36355;SDS011;22384;54.302;18.596;2023-05-19T04:37:05;3.75;;;0.75;;
36355;SDS011;22384;54.302;18.596;2023-05-19T04:39:31;2.13;;;0.85;;
36355;SDS011;22384;54.302;18.596;2023-05-19T04:41:57;6.32;;;1.20;;
36355;SDS011;22384;54.302;18.596;2023-05-19T04:44:23;2.53;;;1.20;;
36355;SDS011;22384;54.302;18.596;2023-05-19T04:46:50;5.72;;;1.02;;
36355;SDS011;22384;54.302;18.596;2023-05-19T04:49:18;1.52;;;1.00;;
36355;SDS011;22384;54.302;18.596;2023-05-19T04:51:44;1.50;;;0.85;;
36355;SDS011;22384;54.302;18.596;2023-05-19T04:54:14;3.80;;;1.10;;
36355;SDS011;22384;54.302;18.596;2023-05-19T04:56:40;4.35;;;1.23;;
36355;SDS011;22384;54.302;18.596;2023-05-19T04:59:07;3.50;;;0.90;;
36355;SDS011;22384;54.302;18.596;2023-05-19T05:01:33;5.00;;;1.20;;
36355;SDS011;22384;54.302;18.596;2023-05-19T05:04:04;4.93;;;1.27;;
36355;SDS011;22384;54.302;18.596;2023-05-19T05:06:30;2.85;;;1.15;;
36355;SDS011;22384;54.302;18.596;2023-05-19T05:08:56;1.60;;;1.00;;
36355;SDS011;22384;54.302;18.596;2023-05-19T05:11:22;6.65;;;1.35;;
36355;SDS011;22384;54.302;18.596;2023-05-19T05:13:48;8.48;;;1.30;;
36355;SDS011;22384;54.302;18.596;2023-05-19T05:16:15;7.38;;;1.40;;
36355;SDS011;22384;54.302;18.596;2023-05-19T05:18:41;1.90;;;0.88;;
36355;SDS011;22384;54.302;18.596;2023-05-19T05:21:07;5.47;;;1.08;;
36355;SDS011;22384;54.302;18.596;2023-05-19T05:23:33;6.90;;;1.83;;
36355;SDS011;22384;54.302;18.596;2023-05-19T05:25:59;7.10;;;1.30;;
36355;SDS011;22384;54.302;18.596;2023-05-19T05:28:31;4.97;;;1.23;;
36355;SDS011;22384;54.302;18.596;2023-05-19T05:30:57;4.82;;;1.75;;
36355;SDS011;22384;54.302;18.596;2023-05-19T05:33:23;4.45;;;1.38;;
36355;SDS011;22384;54.302;18.596;2023-05-19T05:35:49;6.57;;;1.50;;
36355;SDS011;22384;54.302;18.596;2023-05-19T05:38:15;6.30;;;1.40;;
36355;SDS011;22384;54.302;18.596;2023-05-19T05:40:41;6.88;;;1.40;;
36355;SDS011;22384;54.302;18.596;2023-05-19T05:43:07;3.53;;;1.42;;
36355;SDS011;22384;54.302;18.596;2023-05-19T05:45:33;8.07;;;1.13;;
36355;SDS011;22384;54.302;18.596;2023-05-19T05:47:59;2.25;;;1.50;;
36355;SDS011;22384;54.302;18.596;2023-05-19T05:50:25;17.42;;;1.98;;
36355;SDS011;22384;54.302;18.596;2023-05-19T05:52:51;7.88;;;1.40;;
36355;SDS011;22384;54.302;18.596;2023-05-19T05:55:18;4.68;;;1.40;;
36355;SDS011;22384;54.302;18.596;2023-05-19T05:57:44;4.93;;;1.20;;
36355;SDS011;22384;54.302;18.596;2023-05-19T06:00:12;7.60;;;1.17;;
36355;SDS011;22384;54.302;18.596;2023-05-19T06:02:44;2.35;;;1.00;;
36355;SDS011;22384;54.302;18.596;2023-05-19T06:05:11;7.20;;;1.35;;
36355;SDS011;22384;54.302;18.596;2023-05-19T06:07:38;5.75;;;1.00;;
36355;SDS011;22384;54.302;18.596;2023-05-19T06:10:04;3.13;;;1.02;;
36355;SDS011;22384;54.302;18.596;2023-05-19T06:12:30;3.50;;;1.52;;
36355;SDS011;22384;54.302;18.596;2023-05-19T06:14:56;4.72;;;1.17;;
36355;SDS011;22384;54.302;18.596;2023-05-19T06:17:22;7.60;;;1.20;;
36355;SDS011;22384;54.302;18.596;2023-05-19T06:19:50;2.55;;;1.30;;
36355;SDS011;22384;54.302;18.596;2023-05-19T06:22:16;6.80;;;1.30;;
36355;SDS011;22384;54.302;18.596;2023-05-19T06:24:42;4.28;;;1.35;;
36355;SDS011;22384;54.302;18.596;2023-05-19T06:27:08;6.15;;;1.30;;
36355;SDS011;22384;54.302;18.596;2023-05-19T06:29:34;6.32;;;1.38;;
36355;SDS011;22384;54.302;18.596;2023-05-19T06:32:00;3.67;;;1.30;;
36355;SDS011;22384;54.302;18.596;2023-05-19T06:34:26;5.88;;;1.58;;
36355;SDS011;22384;54.302;18.596;2023-05-19T06:36:52;4.22;;;1.27;;
36355;SDS011;22384;54.302;18.596;2023-05-19T06:39:18;6.28;;;1.20;;
36355;SDS011;22384;54.302;18.596;2023-05-19T06:41:44;7.55;;;1.70;;
36355;SDS011;22384;54.302;18.596;2023-05-19T06:44:10;8.00;;;1.38;;
36355;SDS011;22384;54.302;18.596;2023-05-19T06:46:36;7.75;;;2.83;;
36355;SDS011;22384;54.302;18.596;2023-05-19T06:49:03;12.80;;;2.17;;
36355;SDS011;22384;54.302;18.596;2023-05-19T06:51:29;4.78;;;1.92;;
36355;SDS011;22384;54.302;18.596;2023-05-19T06:53:55;9.25;;;1.58;;
36355;SDS011;22384;54.302;18.596;2023-05-19T06:56:21;4.85;;;1.58;;
36355;SDS011;22384;54.302;18.596;2023-05-19T06:58:47;7.30;;;1.83;;
36355;SDS011;22384;54.302;18.596;2023-05-19T07:01:13;6.35;;;1.40;;
36355;SDS011;22384;54.302;18.596;2023-05-19T07:03:39;3.60;;;1.42;;
36355;SDS011;22384;54.302;18.596;2023-05-19T07:06:05;7.30;;;1.75;;
36355;SDS011;22384;54.302;18.596;2023-05-19T07:08:31;7.97;;;1.35;;
36355;SDS011;22384;54.302;18.596;2023-05-19T07:10:58;4.88;;;1.50;;
36355;SDS011;22384;54.302;18.596;2023-05-19T07:13:24;7.85;;;1.10;;
36355;SDS011;22384;54.302;18.596;2023-05-19T07:15:50;7.25;;;1.20;;
36355;SDS011;22384;54.302;18.596;2023-05-19T07:18:19;9.27;;;2.00;;
36355;SDS011;22384;54.302;18.596;2023-05-19T07:20:45;3.95;;;1.52;;
36355;SDS011;22384;54.302;18.596;2023-05-19T07:23:11;4.55;;;1.52;;
36355;SDS011;22384;54.302;18.596;2023-05-19T07:25:37;4.28;;;1.35;;
36355;SDS011;22384;54.302;18.596;2023-05-19T07:28:03;7.28;;;2.50;;
36355;SDS011;22384;54.302;18.596;2023-05-19T07:30:29;4.78;;;1.20;;
36355;SDS011;22384;54.302;18.596;2023-05-19T07:32:56;3.63;;;1.40;;
36355;SDS011;22384;54.302;18.596;2023-05-19T07:35:23;9.85;;;1.88;;
36355;SDS011;22384;54.302;18.596;2023-05-19T07:37:50;2.30;;;1.70;;
36355;SDS011;22384;54.302;18.596;2023-05-19T07:40:17;2.45;;;1.17;;
36355;SDS011;22384;54.302;18.596;2023-05-19T07:42:43;7.00;;;1.40;;
36355;SDS011;22384;54.302;18.596;2023-05-19T07:45:09;6.60;;;1.50;;
36355;SDS011;22384;54.302;18.596;2023-05-19T07:47:35;3.08;;;1.30;;
36355;SDS011;22384;54.302;18.596;2023-05-19T07:50:02;3.75;;;1.75;;
36355;SDS011;22384;54.302;18.596;2023-05-19T07:52:28;3.47;;;1.40;;
36355;SDS011;22384;54.302;18.596;2023-05-19T07:54:54;1.50;;;0.85;;
36355;SDS011;22384;54.302;18.596;2023-05-19T07:57:20;2.40;;;0.88;;
36355;SDS011;22384;54.302;18.596;2023-05-19T07:59:46;1.75;;;1.20;;
36355;SDS011;22384;54.302;18.596;2023-05-19T08:02:12;7.10;;;1.17;;
36355;SDS011;22384;54.302;18.596;2023-05-19T08:04:38;3.10;;;1.00;;
36355;SDS011;22384;54.302;18.596;2023-05-19T08:07:04;3.45;;;1.02;;
36355;SDS011;22384;54.302;18.596;2023-05-19T08:09:30;7.75;;;1.20;;
36355;SDS011;22384;54.302;18.596;2023-05-19T08:11:56;4.57;;;0.98;;
36355;SDS011;22384;54.302;18.596;2023-05-19T08:14:22;11.43;;;1.40;;
36355;SDS011;22384;54.302;18.596;2023-05-19T08:16:48;4.88;;;1.38;;
36355;SDS011;22384;54.302;18.596;2023-05-19T08:19:14;3.58;;;0.95;;
36355;SDS011;22384;54.302;18.596;2023-05-19T08:21:40;6.63;;;1.05;;
36355;SDS011;22384;54.302;18.596;2023-05-19T08:24:07;5.55;;;1.15;;
36355;SDS011;22384;54.302;18.596;2023-05-19T08:26:33;4.97;;;1.35;;
36355;SDS011;22384;54.302;18.596;2023-05-19T08:28:59;2.58;;;0.98;;
36355;SDS011;22384;54.302;18.596;2023-05-19T08:31:25;4.57;;;0.90;;
36355;SDS011;22384;54.302;18.596;2023-05-19T08:33:51;4.07;;;1.45;;
36355;SDS011;22384;54.302;18.596;2023-05-19T08:36:17;5.57;;;0.80;;
36355;SDS011;22384;54.302;18.596;2023-05-19T08:38:43;2.78;;;1.35;;
36355;SDS011;22384;54.302;18.596;2023-05-19T08:41:09;2.90;;;0.80;;
36355;SDS011;22384;54.302;18.596;2023-05-19T08:43:35;2.30;;;1.02;;
36355;SDS011;22384;54.302;18.596;2023-05-19T08:46:03;2.55;;;0.77;;
36355;SDS011;22384;54.302;18.596;2023-05-19T08:48:30;5.65;;;1.30;;
36355;SDS011;22384;54.302;18.596;2023-05-19T08:51:15;5.47;;;1.35;;
36355;SDS011;22384;54.302;18.596;2023-05-19T08:53:50;4.53;;;1.10;;
36355;SDS011;22384;54.302;18.596;2023-05-19T08:56:21;4.88;;;1.80;;
36355;SDS011;22384;54.302;18.596;2023-05-19T08:58:48;1.30;;;0.82;;
36355;SDS011;22384;54.302;18.596;2023-05-19T09:01:15;2.45;;;0.90;;
36355;SDS011;22384;54.302;18.596;2023-05-19T09:03:41;4.15;;;1.10;;
36355;SDS011;22384;54.302;18.596;2023-05-19T09:06:08;5.75;;;1.15;;
36355;SDS011;22384;54.302;18.596;2023-05-19T09:08:38;3.35;;;1.00;;
36355;SDS011;22384;54.302;18.596;2023-05-19T09:11:04;4.80;;;1.35;;
36355;SDS011;22384;54.302;18.596;2023-05-19T09:13:31;2.85;;;1.10;;
36355;SDS011;22384;54.302;18.596;2023-05-19T09:15:57;5.65;;;1.27;;
36355;SDS011;22384;54.302;18.596;2023-05-19T09:18:24;6.82;;;1.17;;
36355;SDS011;22384;54.302;18.596;2023-05-19T09:20:51;5.75;;;1.38;;
36355;SDS011;22384;54.302;18.596;2023-05-19T09:23:23;10.82;;;1.75;;
36355;SDS011;22384;54.302;18.596;2023-05-19T09:25:52;4.60;;;1.17;;
36355;SDS011;22384;54.302;18.596;2023-05-19T09:28:28;7.55;;;1.33;;
36355;SDS011;22384;54.302;18.596;2023-05-19T09:33:27;4.53;;;1.15;;
36355;SDS011;22384;54.302;18.596;2023-05-19T09:35:54;4.50;;;1.17;;
36355;SDS011;22384;54.302;18.596;2023-05-19T09:38:21;2.92;;;1.30;;
36355;SDS011;22384;54.302;18.596;2023-05-19T09:40:47;4.45;;;1.10;;
36355;SDS011;22384;54.302;18.596;2023-05-19T09:43:14;3.90;;;1.30;;
36355;SDS011;22384;54.302;18.596;2023-05-19T09:45:40;4.32;;;1.25;;
36355;SDS011;22384;54.302;18.596;2023-05-19T09:48:06;7.13;;;1.02;;
36355;SDS011;22384;54.302;18.596;2023-05-19T09:50:32;2.85;;;1.00;;
36355;SDS011;22384;54.302;18.596;2023-05-19T09:52:59;3.67;;;1.50;;
36355;SDS011;22384;54.302;18.596;2023-05-19T09:55:30;5.93;;;0.95;;
36355;SDS011;22384;54.302;18.596;2023-05-19T09:57:57;5.63;;;1.17;;
36355;SDS011;22384;54.302;18.596;2023-05-19T10:00:28;4.05;;;1.10;;
36355;SDS011;22384;54.302;18.596;2023-05-19T10:02:54;6.32;;;1.60;;
36355;SDS011;22384;54.302;18.596;2023-05-19T10:05:21;5.63;;;2.17;;
36355;SDS011;22384;54.302;18.596;2023-05-19T10:07:49;5.50;;;1.17;;
36355;SDS011;22384;54.302;18.596;2023-05-19T10:10:15;3.92;;;1.48;;
36355;SDS011;22384;54.302;18.596;2023-05-19T10:12:43;5.00;;;1.30;;
36355;SDS011;22384;54.302;18.596;2023-05-19T10:15:10;2.83;;;1.30;;
36355;SDS011;22384;54.302;18.596;2023-05-19T10:17:38;6.30;;;1.23;;
36355;SDS011;22384;54.302;18.596;2023-05-19T10:20:08;11.57;;;1.73;;
36355;SDS011;22384;54.302;18.596;2023-05-19T10:22:35;5.53;;;1.55;;
36355;SDS011;22384;54.302;18.596;2023-05-19T10:25:01;4.90;;;1.27;;
36355;SDS011;22384;54.302;18.596;2023-05-19T10:27:27;4.40;;;1.60;;
36355;SDS011;22384;54.302;18.596;2023-05-19T10:29:55;4.95;;;1.83;;
36355;SDS011;22384;54.302;18.596;2023-05-19T10:32:22;5.25;;;1.95;;
36355;SDS011;22384;54.302;18.596;2023-05-19T10:37:40;13.65;;;1.90;;
36355;SDS011;22384;54.302;18.596;2023-05-19T10:40:29;10.05;;;1.90;;
36355;SDS011;22384;54.302;18.596;2023-05-19T10:45:35;6.45;;;2.10;;
36355;SDS011;22384;54.302;18.596;2023-05-19T10:48:02;4.68;;;1.73;;
36355;SDS011;22384;54.302;18.596;2023-05-19T10:50:34;4.78;;;1.60;;
36355;SDS011;22384;54.302;18.596;2023-05-19T10:53:01;6.85;;;1.70;;
36355;SDS011;22384;54.302;18.596;2023-05-19T10:58:12;3.35;;;1.45;;
36355;SDS011;22384;54.302;18.596;2023-05-19T11:00:38;6.50;;;1.73;;
36355;SDS011;22384;54.302;18.596;2023-05-19T11:03:11;4.30;;;1.50;;
36355;SDS011;22384;54.302;18.596;2023-05-19T11:05:37;6.07;;;2.15;;
36355;SDS011;22384;54.302;18.596;2023-05-19T11:08:04;2.92;;;1.65;;
36355;SDS011;22384;54.302;18.596;2023-05-19T11:10:36;4.25;;;1.58;;
36355;SDS011;22384;54.302;18.596;2023-05-19T11:13:03;4.85;;;1.63;;
36355;SDS011;22384;54.302;18.596;2023-05-19T11:15:32;6.30;;;1.65;;
36355;SDS011;22384;54.302;18.596;2023-05-19T11:17:58;6.07;;;1.85;;
36355;SDS011;22384;54.302;18.596;2023-05-19T11:20:26;4.10;;;1.65;;
36355;SDS011;22384;54.302;18.596;2023-05-19T11:25:51;5.88;;;2.72;;
36355;SDS011;22384;54.302;18.596;2023-05-19T11:28:21;7.20;;;2.17;;
36355;SDS011;22384;54.302;18.596;2023-05-19T11:30:55;3.85;;;1.88;;
36355;SDS011;22384;54.302;18.596;2023-05-19T11:33:21;3.70;;;1.83;;
36355;SDS011;22384;54.302;18.596;2023-05-19T11:35:51;5.80;;;2.25;;
36355;SDS011;22384;54.302;18.596;2023-05-19T11:38:17;7.60;;;2.20;;
36355;SDS011;22384;54.302;18.596;2023-05-19T11:40:44;10.50;;;2.30;;
36355;SDS011;22384;54.302;18.596;2023-05-19T11:43:11;5.45;;;2.30;;
36355;SDS011;22384;54.302;18.596;2023-05-19T11:45:37;5.05;;;1.73;;
36355;SDS011;22384;54.302;18.596;2023-05-19T11:48:03;5.40;;;1.63;;
36355;SDS011;22384;54.302;18.596;2023-05-19T11:50:31;8.95;;;1.90;;
36355;SDS011;22384;54.302;18.596;2023-05-19T11:52:58;8.35;;;2.63;;
36355;SDS011;22384;54.302;18.596;2023-05-19T11:55:24;11.57;;;2.20;;
36355;SDS011;22384;54.302;18.596;2023-05-19T11:58:00;6.35;;;2.08;;
36355;SDS011;22384;54.302;18.596;2023-05-19T12:00:29;6.22;;;2.47;;
36355;SDS011;22384;54.302;18.596;2023-05-19T12:02:56;7.87;;;2.27;;
36355;SDS011;22384;54.302;18.596;2023-05-19T12:05:23;6.40;;;2.40;;
36355;SDS011;22384;54.302;18.596;2023-05-19T12:07:50;4.90;;;2.05;;
36355;SDS011;22384;54.302;18.596;2023-05-19T12:10:20;14.20;;;2.22;;
36355;SDS011;22384;54.302;18.596;2023-05-19T12:12:47;9.57;;;1.67;;
36355;SDS011;22384;54.302;18.596;2023-05-19T12:15:15;7.03;;;1.67;;
36355;SDS011;22384;54.302;18.596;2023-05-19T12:17:44;7.68;;;1.58;;
36355;SDS011;22384;54.302;18.596;2023-05-19T12:20:10;4.32;;;1.48;;
36355;SDS011;22384;54.302;18.596;2023-05-19T12:22:37;7.18;;;2.00;;
36355;SDS011;22384;54.302;18.596;2023-05-19T12:25:03;10.25;;;1.60;;
36355;SDS011;22384;54.302;18.596;2023-05-19T12:27:30;8.77;;;1.85;;
36355;SDS011;22384;54.302;18.596;2023-05-19T12:30:01;4.25;;;2.25;;
36355;SDS011;22384;54.302;18.596;2023-05-19T12:32:27;6.70;;;1.77;;
36355;SDS011;22384;54.302;18.596;2023-05-19T12:34:56;6.90;;;2.08;;
36355;SDS011;22384;54.302;18.596;2023-05-19T12:37:26;5.15;;;1.92;;
36355;SDS011;22384;54.302;18.596;2023-05-19T12:39:54;5.80;;;2.10;;
36355;SDS011;22384;54.302;18.596;2023-05-19T12:42:21;4.90;;;1.42;;
36355;SDS011;22384;54.302;18.596;2023-05-19T12:44:48;3.60;;;1.65;;
36355;SDS011;22384;54.302;18.596;2023-05-19T12:47:16;11.60;;;1.80;;
36355;SDS011;22384;54.302;18.596;2023-05-19T12:52:25;6.80;;;1.77;;
36355;SDS011;22384;54.302;18.596;2023-05-19T12:54:59;6.72;;;1.67;;
36355;SDS011;22384;54.302;18.596;2023-05-19T12:57:26;7.05;;;2.42;;
36355;SDS011;22384;54.302;18.596;2023-05-19T13:00:06;6.22;;;2.10;;
36355;SDS011;22384;54.302;18.596;2023-05-19T13:02:53;5.30;;;2.05;;
36355;SDS011;22384;54.302;18.596;2023-05-19T13:05:20;4.82;;;2.15;;
36355;SDS011;22384;54.302;18.596;2023-05-19T13:08:00;7.75;;;2.47;;
36355;SDS011;22384;54.302;18.596;2023-05-19T13:10:26;8.80;;;2.10;;
36355;SDS011;22384;54.302;18.596;2023-05-19T13:12:53;11.27;;;2.47;;
36355;SDS011;22384;54.302;18.596;2023-05-19T13:15:21;9.45;;;2.15;;
36355;SDS011;22384;54.302;18.596;2023-05-19T13:17:48;8.90;;;2.13;;
36355;SDS011;22384;54.302;18.596;2023-05-19T13:20:14;3.88;;;2.15;;
36355;SDS011;22384;54.302;18.596;2023-05-19T13:22:40;5.45;;;2.10;;
36355;SDS011;22384;54.302;18.596;2023-05-19T13:25:07;7.63;;;1.73;;
36355;SDS011;22384;54.302;18.596;2023-05-19T13:27:33;4.50;;;1.80;;
36355;SDS011;22384;54.302;18.596;2023-05-19T13:30:00;5.15;;;2.22;;
36355;SDS011;22384;54.302;18.596;2023-05-19T13:32:26;4.70;;;2.05;;
36355;SDS011;22384;54.302;18.596;2023-05-19T13:34:52;3.55;;;1.90;;
36355;SDS011;22384;54.302;18.596;2023-05-19T13:37:18;4.13;;;1.60;;
36355;SDS011;22384;54.302;18.596;2023-05-19T13:39:44;5.75;;;2.30;;
36355;SDS011;22384;54.302;18.596;2023-05-19T13:42:10;7.38;;;1.90;;
36355;SDS011;22384;54.302;18.596;2023-05-19T13:44:36;7.18;;;2.08;;
36355;SDS011;22384;54.302;18.596;2023-05-19T13:47:02;6.13;;;2.15;;
36355;SDS011;22384;54.302;18.596;2023-05-19T13:49:28;9.57;;;2.10;;
36355;SDS011;22384;54.302;18.596;2023-05-19T13:51:57;7.00;;;2.03;;
36355;SDS011;22384;54.302;18.596;2023-05-19T13:54:23;4.68;;;1.88;;
36355;SDS011;22384;54.302;18.596;2023-05-19T13:56:49;6.80;;;1.90;;
36355;SDS011;22384;54.302;18.596;2023-05-19T13:59:15;4.65;;;2.05;;
36355;SDS011;22384;54.302;18.596;2023-05-19T14:01:42;6.88;;;2.17;;
36355;SDS011;22384;54.302;18.596;2023-05-19T14:04:09;7.35;;;2.03;;
36355;SDS011;22384;54.302;18.596;2023-05-19T14:06:35;6.18;;;2.50;;
36355;SDS011;22384;54.302;18.596;2023-05-19T14:09:02;3.50;;;1.98;;
36355;SDS011;22384;54.302;18.596;2023-05-19T14:11:28;4.32;;;2.00;;
36355;SDS011;22384;54.302;18.596;2023-05-19T14:13:54;10.05;;;2.22;;
36355;SDS011;22384;54.302;18.596;2023-05-19T14:16:20;5.43;;;2.25;;
36355;SDS011;22384;54.302;18.596;2023-05-19T14:18:46;5.55;;;1.90;;
36355;SDS011;22384;54.302;18.596;2023-05-19T14:21:12;4.53;;;1.65;;
36355;SDS011;22384;54.302;18.596;2023-05-19T14:23:38;2.88;;;1.77;;
36355;SDS011;22384;54.302;18.596;2023-05-19T14:26:05;4.50;;;1.85;;
36355;SDS011;22384;54.302;18.596;2023-05-19T14:28:31;8.35;;;2.80;;
36355;SDS011;22384;54.302;18.596;2023-05-19T14:30:57;6.03;;;2.92;;
36355;SDS011;22384;54.302;18.596;2023-05-19T14:33:23;4.93;;;2.33;;
36355;SDS011;22384;54.302;18.596;2023-05-19T14:35:49;7.70;;;2.30;;
36355;SDS011;22384;54.302;18.596;2023-05-19T14:38:15;3.55;;;1.98;;
36355;SDS011;22384;54.302;18.596;2023-05-19T14:40:41;5.95;;;2.42;;
36355;SDS011;22384;54.302;18.596;2023-05-19T14:43:07;6.72;;;2.47;;
36355;SDS011;22384;54.302;18.596;2023-05-19T14:45:33;11.30;;;4.28;;
36355;SDS011;22384;54.302;18.596;2023-05-19T14:47:59;8.68;;;4.97;;
36355;SDS011;22384;54.302;18.596;2023-05-19T14:50:28;8.10;;;4.95;;
36355;SDS011;22384;54.302;18.596;2023-05-19T14:52:55;9.27;;;5.07;;
36355;SDS011;22384;54.302;18.596;2023-05-19T14:55:22;9.15;;;3.67;;
36355;SDS011;22384;54.302;18.596;2023-05-19T14:57:48;12.05;;;3.90;;
36355;SDS011;22384;54.302;18.596;2023-05-19T15:00:14;8.70;;;3.03;;